Time,TemperatureF,DewpointF,PressureIn,WindDirection,WindDirectionDegrees,WindSpeedMPH,WindSpeedGustMPH,Humidity,HourlyPrecipIn,Conditions,Clouds,dailyrainin,SoftwareType,DateUTC
2013-09-25 06:20:00,45.5,45.0,29.97,East,90,0.0,0.0,98,0.00,,SKC,0.00,VWS V14.01,2013-09-25 11:20:00,
2013-09-25 06:40:00,45.3,44.8,29.97,East,90,0.0,0.0,98,0.00,,SKC,0.00,VWS V14.01,2013-09-25 11:40:00,
2013-09-25 07:00:00,45.3,44.8,29.97,ESE,112,0.0,0.0,98,0.00,,SKC,0.00,VWS V14.01,2013-09-25 12:00:00,
2013-09-25 07:20:00,45.5,45.0,29.97,ESE,112,0.0,0.0,98,0.00,,SKC,0.00,VWS V14.01,2013-09-25 12:20:00,
2013-09-25 07:39:00,45.3,44.8,29.97,ESE,112,0.0,0.0,98,0.00,,SKC,0.00,VWS V14.01,2013-09-25 12:39:00,
2013-09-25 08:00:00,45.9,45.3,29.97,ESE,112,0.0,0.0,98,0.00,,SKC,0.00,VWS V14.01,2013-09-25 13:00:00,
2013-09-25 08:19:00,46.6,46.0,29.94,ESE,112,0.0,2.7,98,0.00,,SKC,0.00,VWS V14.01,2013-09-25 13:19:00,
2013-09-25 08:40:00,48.0,47.5,29.97,ESE,112,0.0,3.5,98,0.00,,SKC,0.00,VWS V14.01,2013-09-25 13:40:00,
2013-09-25 09:00:00,50.2,49.6,29.97,SSE,158,0.0,3.9,98,0.00,,SKC,0.00,VWS V14.01,2013-09-25 14:00:00,
2013-09-25 09:19:00,51.4,50.9,29.97,East,90,0.0,0.0,98,0.00,,SKC,0.00,VWS V14.01,2013-09-25 14:19:00,
2013-09-25 09:40:00,55.2,54.7,29.97,SSE,158,1.8,4.3,98,0.00,,SKC,0.00,VWS V14.01,2013-09-25 14:40:00,
2013-09-25 10:00:00,58.8,57.1,29.97,ENE,68,3.6,5.5,94,0.00,,SKC,0.00,VWS V14.01,2013-09-25 15:00:00,
2013-09-25 10:20:00,61.0,57.7,29.97,ENE,68,1.3,5.5,89,0.00,,SKC,0.00,VWS V14.01,2013-09-25 15:20:00,
2013-09-25 10:39:00,63.3,57.4,29.97,SSE,158,1.5,6.7,81,0.00,,SKC,0.00,VWS V14.01,2013-09-25 15:39:00,
2013-09-25 11:00:00,64.8,56.7,29.97,SSW,202,3.3,7.0,75,0.00,,SKC,0.00,VWS V14.01,2013-09-25 16:00:00,
2013-09-25 11:20:00,66.2,56.1,29.97,SW,225,4.1,6.7,70,0.00,,SKC,0.00,VWS V14.01,2013-09-25 16:20:00,
2013-09-25 11:40:00,67.1,54.5,29.97,SSW,202,2.3,10.2,64,0.00,,SKC,0.00,VWS V14.01,2013-09-25 16:40:00,
2013-09-25 12:00:00,68.2,53.3,29.97,WNW,292,1.3,8.6,59,0.00,,SKC,0.00,VWS V14.01,2013-09-25 17:00:00,
2013-09-25 12:20:00,68.4,51.6,29.97,SSE,158,2.8,11.4,55,0.00,,SKC,0.00,VWS V14.01,2013-09-25 17:20:00,
2013-09-25 12:40:00,69.1,53.7,29.97,WSW,248,7.5,11.4,58,0.00,,SKC,0.00,VWS V14.01,2013-09-25 17:40:00,
2013-09-25 13:00:00,68.7,52.4,29.97,East,90,3.3,13.3,56,0.00,,SKC,0.00,VWS V14.01,2013-09-25 18:00:00,
2013-09-25 13:19:00,69.4,53.6,29.94,North,0,3.9,11.4,57,0.00,,SKC,0.00,VWS V14.01,2013-09-25 18:19:00,
2013-09-25 13:40:00,70.2,54.7,29.94,WSW,248,1.8,8.2,58,0.00,,SKC,0.00,VWS V14.01,2013-09-25 18:40:00,
2013-09-25 14:00:00,70.2,53.3,29.94,NE,45,1.0,15.3,55,0.00,,SKC,0.00,VWS V14.01,2013-09-25 19:00:00,
2013-09-25 14:20:00,70.2,50.7,29.94,WSW,248,4.6,7.4,50,0.00,,SKC,0.00,VWS V14.01,2013-09-25 19:20:00,
2013-09-25 14:40:00,70.3,51.4,29.94,ENE,68,2.6,10.2,51,0.00,,SKC,0.00,VWS V14.01,2013-09-25 19:40:00,
2013-09-25 15:00:00,70.2,51.2,29.94,ENE,68,3.3,8.6,51,0.00,,SKC,0.00,VWS V14.01,2013-09-25 20:00:00,
2013-09-25 15:19:00,70.2,51.2,29.94,South,180,1.3,12.9,51,0.00,,SKC,0.00,VWS V14.01,2013-09-25 20:19:00,
2013-09-25 15:40:00,70.5,52.6,29.91,SSW,202,1.3,7.4,53,0.00,,SKC,0.00,VWS V14.01,2013-09-25 20:40:00,
2013-09-25 16:00:00,70.7,51.2,29.91,ENE,68,2.8,11.0,50,0.00,,SKC,0.00,VWS V14.01,2013-09-25 21:00:00,
2013-09-25 16:20:00,70.3,51.4,29.91,WSW,248,3.6,10.2,51,0.00,,SKC,0.00,VWS V14.01,2013-09-25 21:20:00,
2013-09-25 16:40:00,70.0,51.6,29.91,SSE,158,0.0,6.7,52,0.00,,SKC,0.00,VWS V14.01,2013-09-25 21:40:00,
2013-09-25 17:00:00,69.4,51.6,29.91,East,90,1.3,5.5,53,0.00,,SKC,0.00,VWS V14.01,2013-09-25 22:00:00,
2013-09-25 17:20:00,68.7,50.4,29.91,SSW,202,1.8,7.0,52,0.00,,SKC,0.00,VWS V14.01,2013-09-25 22:20:00,
2013-09-25 17:39:00,68.0,50.8,29.91,SE,135,0.0,9.4,54,0.00,,SKC,0.00,VWS V14.01,2013-09-25 22:39:00,
2013-09-25 18:00:00,65.7,53.2,29.91,East,90,0.0,3.9,64,0.00,,SKC,0.00,VWS V14.01,2013-09-25 23:00:00,
2013-09-25 18:19:00,63.5,53.5,29.91,ENE,68,0.0,0.0,70,0.00,,SKC,0.00,VWS V14.01,2013-09-25 23:19:00,
2013-09-25 18:40:00,61.5,53.5,29.91,ENE,68,0.0,0.0,75,0.00,,SKC,0.00,VWS V14.01,2013-09-25 23:40:00,
2013-09-25 19:00:00,60.3,53.7,29.91,East,90,0.0,0.0,79,0.00,,SKC,0.00,VWS V14.01,2013-09-26 00:00:00,
2013-09-25 19:20:00,59.0,53.5,29.91,ENE,68,0.0,0.0,82,0.00,,SKC,0.00,VWS V14.01,2013-09-26 00:20:00,
2013-09-25 19:40:00,57.7,53.0,29.91,ENE,68,0.0,0.0,84,0.00,,SKC,0.00,VWS V14.01,2013-09-26 00:40:00,
2013-09-25 20:00:00,56.7,52.2,29.91,ENE,68,0.0,0.0,85,0.00,,SKC,0.00,VWS V14.01,2013-09-26 01:00:00,
2013-09-25 20:20:00,55.6,51.8,29.91,ENE,68,0.0,0.0,87,0.00,,SKC,0.00,VWS V14.01,2013-09-26 01:20:00,
2013-09-25 20:40:00,54.9,51.4,29.91,ENE,68,0.0,0.0,88,0.00,,SKC,0.00,VWS V14.01,2013-09-26 01:40:00,
2013-09-25 20:59:00,54.1,51.3,29.91,ENE,68,0.0,0.0,90,0.00,,SKC,0.00,VWS V14.01,2013-09-26 01:59:00,
2013-09-25 21:20:00,53.2,51.0,29.94,ENE,68,0.0,0.0,92,0.00,,SKC,0.00,VWS V14.01,2013-09-26 02:20:00,
2013-09-25 21:40:00,52.9,50.6,29.94,ENE,68,0.0,0.0,92,0.00,,SKC,0.00,VWS V14.01,2013-09-26 02:40:00,
2013-09-25 22:00:00,52.5,50.6,29.91,ENE,68,0.0,0.0,93,0.00,,SKC,0.00,VWS V14.01,2013-09-26 03:00:00,
2013-09-25 22:20:00,52.2,50.2,29.94,ENE,68,0.0,0.0,93,0.00,,SKC,0.00,VWS V14.01,2013-09-26 03:20:00,
2013-09-25 22:40:00,51.6,49.7,29.94,ENE,68,0.0,0.0,93,0.00,,SKC,0.00,VWS V14.01,2013-09-26 03:40:00,
2013-09-25 23:00:00,51.4,49.8,29.94,ENE,68,0.0,2.7,94,0.00,,SKC,0.00,VWS V14.01,2013-09-26 04:00:00,
2013-09-25 23:19:00,51.1,49.4,29.94,ENE,68,0.0,0.0,94,0.00,,SKC,0.00,VWS V14.01,2013-09-26 04:19:00,
2013-09-25 23:40:00,50.7,49.1,29.94,ENE,68,0.0,0.0,94,0.00,,SKC,0.00,VWS V14.01,2013-09-26 04:40:00,
2013-09-25 23:59:00,50.4,49.0,29.94,ENE,68,0.0,0.0,95,0.00,,SKC,0.00,VWS V14.01,2013-09-26 04:59:00,